Sen. John J. Marchi — WDB8296 — position and weather

sailwx.info

Track history (hours):
 
Tides and Currents Weather Stations Pressure Air Temp Water Temp Dewpoint Dewpoint Depression Visibility Wind Speed Wind Dir Waves Ship Positions

Sen. John J. Marchi

Owner: CITY OF NEW YORK, Brooklyn, NY. More information available from US FCC via Universal Licensing System and Coast Guard Vessel Documentation Center.

Last reported at 2018-Feb-24 16:30 UTC. Time now 2018-Feb-24 16:33 UTC.
Position N 40°39' W 074°04'.

Length 95 m; draft 4 m.

Type: Passenger vessel. MMSI: 366952870.

Date/timePositionNaut miles runAvg speedWind from/ knotsBaromVisibWave heightAir tempDewpointWater temp
2018-Feb-24 16:30N 40°39' W 074°04'0 0.0
2018-Feb-24 16:00N 40°39' W 074°04'0 0.0
2018-Feb-24 15:30N 40°39' W 074°04'0 0.0
2018-Feb-24 15:00N 40°39' W 074°04'0 0.0
2018-Feb-24 14:30N 40°39' W 074°04'0 0.0
2018-Feb-24 14:00N 40°39' W 074°04'0 0.0
2018-Feb-24 13:30N 40°39' W 074°04'0 0.0
2018-Feb-24 13:00N 40°39' W 074°04'0 0.0
2018-Feb-24 12:30N 40°39' W 074°04'0 0.0
2018-Feb-24 12:00N 40°39' W 074°04'0 0.0
2018-Feb-24 11:30N 40°39' W 074°04'0 0.0
2018-Feb-24 11:00N 40°39' W 074°04'0 0.0
2018-Feb-24 10:30N 40°39' W 074°04'0 0.0
2018-Feb-24 10:00N 40°39' W 074°04'0 0.0
2018-Feb-24 09:30N 40°39' W 074°04'0 0.0
2018-Feb-24 09:00N 40°39' W 074°04'0 0.0
2018-Feb-24 08:30N 40°39' W 074°04'0 0.0
2018-Feb-24 08:00N 40°39' W 074°04'0 0.0
2018-Feb-24 07:30N 40°39' W 074°04'0 0.0
2018-Feb-24 07:00N 40°39' W 074°04'0 0.0
2018-Feb-24 06:30N 40°39' W 074°04'0 0.0
2018-Feb-24 06:00N 40°39' W 074°04'0 0.0
2018-Feb-24 05:30N 40°39' W 074°04'0 0.0
2018-Feb-24 05:00N 40°39' W 074°04'0 0.2
2018-Feb-24 04:30N 40°39' W 074°04'0 0.0
2018-Feb-24 04:00N 40°39' W 074°04'4 8.6
2018-Feb-24 03:30N 40°42' W 074°01'4 8.6
2018-Feb-24 03:00N 40°39' W 074°04'0 0.0
2018-Feb-24 02:30N 40°39' W 074°04'0 0.0
2018-Feb-24 02:00N 40°39' W 074°04'4 8.6
2018-Feb-24 01:30N 40°42' W 074°01'4 8.6
2018-Feb-24 01:00N 40°39' W 074°04'3 6.7
2018-Feb-24 00:31N 40°41' W 074°02'2 4.4
2018-Feb-24 00:00N 40°39' W 074°03'2 3.8
2018-Feb-23 23:30N 40°41' W 074°02'2 3.0
2018-Feb-23 23:00N 40°40' W 074°03'2 3.6
2018-Feb-23 22:30N 40°41' W 074°02'2 4.4
2018-Feb-23 22:01N 40°39' W 074°03'1 2.8
2018-Feb-23 21:30N 40°41' W 074°03'1 1.1
2018-Feb-23 21:01N 40°40' W 074°03'2 3.9
2018-Feb-23 20:30N 40°39' W 074°04'4 8.7
2018-Feb-23 20:00N 40°42' W 074°01'4 8.6
2018-Feb-23 19:30N 40°39' W 074°04'4 8.6
2018-Feb-23 19:00N 40°42' W 074°01'4 8.6
2018-Feb-23 18:30N 40°39' W 074°04'0 0.0
2018-Feb-23 18:00N 40°39' W 074°04'0 0.0
2018-Feb-23 17:30N 40°39' W 074°04'4 8.6
2018-Feb-23 17:00N 40°42' W 074°01'4 8.7
2018-Feb-23 16:31N 40°39' W 074°04'4 8.5
2018-Feb-23 16:00N 40°42' W 074°01'4 8.5
2018-Feb-23 15:30N 40°39' W 074°04'0 0.0
2018-Feb-23 15:00N 40°39' W 074°04'0 0.3
2018-Feb-23 14:30N 40°39' W 074°04'4 7.4
2018-Feb-23 14:01N 40°42' W 074°01'3 6.8
2018-Feb-23 13:30N 40°39' W 074°04'3 6.7
2018-Feb-23 13:00N 40°42' W 074°01'3 6.9
2018-Feb-23 12:30N 40°39' W 074°04'4 7.2
2018-Feb-23 12:01N 40°42' W 074°01'4 7.7
2018-Feb-23 11:30N 40°39' W 074°04'0 0.0
2018-Feb-23 11:00N 40°39' W 074°04'0 0.0
2018-Feb-23 10:30N 40°39' W 074°04'0 0.0
2018-Feb-23 09:57N 40°39' W 074°04'0 0.0
2018-Feb-23 09:30N 40°39' W 074°04'0 0.0
2018-Feb-23 09:00N 40°39' W 074°04'0 0.0
2018-Feb-23 08:30N 40°39' W 074°04'0 0.0
2018-Feb-23 08:00N 40°39' W 074°04'0 0.0
2018-Feb-23 07:30N 40°39' W 074°04'0 0.0
2018-Feb-23 07:00N 40°39' W 074°04'0 0.0
2018-Feb-23 06:30N 40°39' W 074°04'0 0.0
2018-Feb-23 06:00N 40°39' W 074°04'0 0.0
2018-Feb-23 05:30N 40°39' W 074°04'0 0.0
2018-Feb-23 05:00N 40°39' W 074°04'0 0.0
2018-Feb-23 04:30N 40°39' W 074°04'0 0.0
2018-Feb-23 04:00N 40°39' W 074°04'4 8.5
2018-Feb-23 03:30N 40°42' W 074°01'4 8.6
2018-Feb-23 03:01N 40°39' W 074°04'0 0.0
2018-Feb-23 02:30N 40°39' W 074°04'0 0.0
2018-Feb-23 01:52N 40°39' W 074°04'412.0
2018-Feb-23 01:30N 40°42' W 074°01'4 8.6
2018-Feb-23 01:01N 40°39' W 074°04'2 4.5
2018-Feb-23 00:30N 40°41' W 074°03'1 1.0
2018-Feb-23 00:00N 40°40' W 074°03'1 1.5
2018-Feb-22 23:31N 40°41' W 074°02'1 1.3
2018-Feb-22 23:01N 40°40' W 074°03'1 1.8
2018-Feb-22 22:31N 40°41' W 074°02'1 2.1
2018-Feb-22 22:01N 40°40' W 074°03'1 1.4
2018-Feb-22 21:31N 40°41' W 074°03'1 1.3
2018-Feb-22 21:00N 40°40' W 074°03'2 3.6
2018-Feb-22 20:30N 40°39' W 074°04'4 8.6
2018-Feb-22 20:00N 40°42' W 074°01'4 8.6
2018-Feb-22 19:30N 40°39' W 074°04'4 8.5
2018-Feb-22 19:00N 40°42' W 074°01'4 8.5
2018-Feb-22 18:30N 40°39' W 074°04'0 0.1
2018-Feb-22 18:00N 40°39' W 074°04'0 0.0
2018-Feb-22 17:30N 40°39' W 074°04'4 8.6
2018-Feb-22 17:00N 40°42' W 074°01'4 8.6
2018-Feb-22 16:31N 40°39' W 074°04'0 0.0
2018-Feb-22 16:01N 40°39' W 074°04'4 8.6
2018-Feb-22 15:30N 40°42' W 074°01'4 8.6
2018-Feb-22 15:01N 40°39' W 074°04'1 1.8
2018-Feb-22 14:31N 40°39' W 074°03'3 5.8
2018-Feb-22 14:00N 40°42' W 074°01'4 7.5
2018-Feb-22 13:30N 40°39' W 074°04'3 6.9
2018-Feb-22 13:00N 40°42' W 074°02'3 6.8
2018-Feb-22 12:31N 40°39' W 074°04'3 6.8
2018-Feb-22 12:00N 40°42' W 074°02'4 7.0
2018-Feb-22 11:30N 40°39' W 074°04'0 0.0
2018-Feb-22 11:00N 40°39' W 074°04'0 0.1
2018-Feb-22 10:30N 40°39' W 074°04'0 0.0
2018-Feb-22 10:00N 40°39' W 074°04'0 0.0
2018-Feb-22 09:30N 40°39' W 074°04'0 0.0
2018-Feb-22 09:00N 40°39' W 074°04'0 0.0
2018-Feb-22 08:30N 40°39' W 074°04'0 0.0
2018-Feb-22 07:58N 40°39' W 074°04'0 0.0
2018-Feb-22 07:28N 40°39' W 074°04'0 0.0
2018-Feb-22 06:58N 40°39' W 074°04'0 0.0
2018-Feb-22 06:28N 40°39' W 074°04'0 0.0
2018-Feb-22 05:58N 40°39' W 074°04'0 0.0
2018-Feb-22 05:28N 40°39' W 074°04'0 0.0
2018-Feb-22 04:58N 40°39' W 074°04'0 0.0
2018-Feb-22 04:30N 40°39' W 074°04'0 0.0
2018-Feb-22 04:00N 40°39' W 074°04'4 8.6
2018-Feb-22 03:30N 40°42' W 074°01'4 8.6
2018-Feb-22 03:00N 40°39' W 074°04'0 0.0
2018-Feb-22 02:30N 40°39' W 074°04'4 8.6
2018-Feb-22 02:00N 40°42' W 074°01'4 8.6
2018-Feb-22 01:30N 40°39' W 074°04'4 8.6
2018-Feb-22 01:00N 40°42' W 074°01'4 8.6
2018-Feb-22 00:30N 40°39' W 074°04'4 8.6
2018-Feb-22 00:00N 40°42' W 074°01'4 8.2
2018-Feb-21 23:31N 40°39' W 074°04'2 3.8
2018-Feb-21 23:00N 40°40' W 074°03'1 1.3
2018-Feb-21 22:30N 40°41' W 074°02'2 3.1
2018-Feb-21 22:01N 40°40' W 074°03'3 5.6
2018-Feb-21 21:30N 40°42' W 074°01'4 8.1
2018-Feb-21 21:00N 40°39' W 074°04'4 8.6
2018-Feb-21 20:30N 40°42' W 074°01'4 8.6
2018-Feb-21 20:01N 40°39' W 074°04'0 0.3
2018-Feb-21 19:30N 40°39' W 074°04'4 8.3
2018-Feb-21 19:00N 40°42' W 074°01'4 8.6
2018-Feb-21 18:30N 40°39' W 074°04'4 8.6
2018-Feb-21 18:01N 40°42' W 074°01'4 8.5
2018-Feb-21 17:30N 40°39' W 074°04'0 0.1
2018-Feb-21 17:00N 40°39' W 074°04'4 8.4
2018-Feb-21 16:30N 40°42' W 074°01'4 8.9
2018-Feb-21 16:00N 40°39' W 074°04'4 8.6
2018-Feb-21 15:31N 40°42' W 074°01'4 8.5
2018-Feb-21 15:00N 40°39' W 074°04'0 0.1
2018-Feb-21 14:30N 40°39' W 074°04'4 8.5
2018-Feb-21 14:00N 40°42' W 074°01'4 8.7
2018-Feb-21 13:30N 40°39' W 074°04'4 8.6
2018-Feb-21 13:00N 40°42' W 074°01'4 8.6
2018-Feb-21 12:30N 40°39' W 074°04'1 1.7
2018-Feb-21 12:00N 40°38' W 074°04'1 1.6
2018-Feb-21 11:30N 40°39' W 074°04'0 0.0
2018-Feb-21 11:00N 40°39' W 074°04'0 0.1
2018-Feb-21 10:30N 40°39' W 074°04'0 0.1
2018-Feb-21 10:00N 40°39' W 074°04'0 0.0
2018-Feb-21 09:27N 40°39' W 074°04'0 0.0
2018-Feb-21 09:00N 40°39' W 074°04'0 0.0
2018-Feb-21 08:30N 40°39' W 074°04'0 0.0
2018-Feb-21 08:00N 40°39' W 074°04'0 0.0
2018-Feb-21 07:30N 40°39' W 074°04'0 0.0
2018-Feb-21 07:00N 40°39' W 074°04'0 0.0
2018-Feb-21 06:30N 40°39' W 074°04'0 0.0
2018-Feb-21 05:57N 40°39' W 074°04'0 0.0
2018-Feb-21 05:30N 40°39' W 074°04'0 0.0
2018-Feb-21 05:00N 40°39' W 074°04'0 0.3
2018-Feb-21 04:30N 40°39' W 074°04'0 0.0
2018-Feb-21 04:00N 40°39' W 074°04'4 8.5
2018-Feb-21 03:30N 40°42' W 074°01'4 8.6
2018-Feb-21 03:00N 40°39' W 074°04'0 0.1
2018-Feb-21 02:30N 40°39' W 074°04'4 8.6
2018-Feb-21 02:00N 40°42' W 074°01'4 8.6
2018-Feb-21 01:31N 40°39' W 074°04'0 0.0
2018-Feb-21 01:00N 40°39' W 074°04'4 8.5
2018-Feb-21 00:30N 40°42' W 074°01'4 8.5
2018-Feb-21 00:00N 40°39' W 074°04'4 8.5
2018-Feb-20 23:30N 40°42' W 074°01'4 8.4
2018-Feb-20 23:00N 40°39' W 074°04'4 8.6
2018-Feb-20 22:30N 40°42' W 074°01'3 6.0
2018-Feb-20 22:00N 40°40' W 074°03'2 3.4
2018-Feb-20 21:31N 40°41' W 074°02'1 2.8
2018-Feb-20 21:00N 40°40' W 074°03'2 3.2
2018-Feb-20 20:30N 40°39' W 074°04'4 8.8
2018-Feb-20 20:01N 40°42' W 074°01'4 8.6
2018-Feb-20 19:30N 40°39' W 074°04'0 0.0
2018-Feb-20 19:00N 40°39' W 074°04'4 8.5
2018-Feb-20 18:30N 40°42' W 074°01'4 8.5
2018-Feb-20 18:00N 40°39' W 074°04'4 8.7
2018-Feb-20 17:30N 40°42' W 074°01'4 8.6
2018-Feb-20 17:00N 40°39' W 074°04'0 0.0
2018-Feb-20 16:30N 40°39' W 074°04'4 8.6
2018-Feb-20 16:00N 40°42' W 074°01'4 8.6
2018-Feb-20 15:30N 40°39' W 074°04'1 2.9
2018-Feb-20 15:00N 40°40' W 074°03'3 5.4
2018-Feb-20 14:31N 40°42' W 074°01'4 8.3
2018-Feb-20 14:00N 40°39' W 074°04'3 6.3
2018-Feb-20 13:30N 40°41' W 074°02'0 0.4
2018-Feb-20 13:00N 40°41' W 074°02'3 6.0
2018-Feb-20 12:30N 40°39' W 074°04'0 0.2
2018-Feb-20 12:01N 40°39' W 074°04'0 0.0
2018-Feb-20 11:31N 40°39' W 074°04'0 0.1
2018-Feb-20 11:00N 40°39' W 074°04'0 0.0
2018-Feb-20 10:29N 40°39' W 074°04'0 0.0
2018-Feb-20 09:59N 40°39' W 074°04'0 0.0
2018-Feb-20 09:29N 40°39' W 074°04'0 0.0
2018-Feb-20 08:59N 40°39' W 074°04'0 0.0
2018-Feb-20 08:29N 40°39' W 074°04'0 0.0
2018-Feb-20 07:59N 40°39' W 074°04'0 0.0
2018-Feb-20 07:29N 40°39' W 074°04'0 0.0
2018-Feb-20 06:59N 40°39' W 074°04'0 0.0
2018-Feb-20 06:29N 40°39' W 074°04'0 0.0
2018-Feb-20 05:59N 40°39' W 074°04'0 0.0
2018-Feb-20 05:29N 40°39' W 074°04'0 0.0
2018-Feb-20 04:59N 40°39' W 074°04'0 0.0
2018-Feb-20 04:29N 40°39' W 074°04'0 0.0
2018-Feb-20 03:59N 40°39' W 074°04'0 0.0
2018-Feb-20 03:29N 40°39' W 074°04'0 0.0
2018-Feb-20 02:59N 40°39' W 074°04'0 0.0
2018-Feb-20 02:29N 40°39' W 074°04'0 0.0
2018-Feb-20 01:59N 40°39' W 074°04'0 0.0
2018-Feb-20 01:29N 40°39' W 074°04'0 0.0
2018-Feb-20 00:59N 40°39' W 074°04'0 0.0
2018-Feb-20 00:29N 40°39' W 074°04'0 0.0
2018-Feb-19 23:59N 40°39' W 074°04'0 0.0
2018-Feb-19 23:29N 40°39' W 074°04'0 0.0
2018-Feb-19 22:59N 40°39' W 074°04'0 0.0
2018-Feb-19 22:29N 40°39' W 074°04'0 0.0
2018-Feb-19 21:59N 40°39' W 074°04'0 0.0
2018-Feb-19 21:29N 40°39' W 074°04'0 0.0
2018-Feb-19 20:59N 40°39' W 074°04'0 0.0
2018-Feb-19 20:29N 40°39' W 074°04'0 0.0
2018-Feb-19 19:59N 40°39' W 074°04'0 0.0
2018-Feb-19 19:29N 40°39' W 074°04'0 0.0
2018-Feb-19 18:59N 40°39' W 074°04'0 0.0
2018-Feb-19 18:29N 40°39' W 074°04'0 0.0
2018-Feb-19 17:59N 40°39' W 074°04'0 0.0
2018-Feb-19 17:29N 40°39' W 074°04'0 0.0
2018-Feb-19 16:59N 40°39' W 074°04'0 0.0
2018-Feb-19 16:26N 40°39' W 074°04'0 0.0
2018-Feb-19 15:59N 40°39' W 074°04'0 0.0
2018-Feb-19 15:29N 40°39' W 074°04'0 0.0
2018-Feb-19 14:59N 40°39' W 074°04'0 0.0
2018-Feb-19 14:29N 40°39' W 074°04'0 0.0
2018-Feb-19 13:59N 40°39' W 074°04'0 0.0
2018-Feb-19 13:29N 40°39' W 074°04'0 0.0
2018-Feb-19 12:59N 40°39' W 074°04'0 0.0
2018-Feb-19 12:29N 40°39' W 074°04'0 0.0
2018-Feb-19 11:59N 40°39' W 074°04'0 0.0
2018-Feb-19 11:29N 40°39' W 074°04'0 0.0
2018-Feb-19 10:59N 40°39' W 074°04'0 0.0
2018-Feb-19 10:26N 40°39' W 074°04'0 0.0
2018-Feb-19 09:59N 40°39' W 074°04'0 0.0
2018-Feb-19 09:29N 40°39' W 074°04'0 0.0
2018-Feb-19 08:59N 40°39' W 074°04'0 0.0
2018-Feb-19 08:23N 40°39' W 074°04'0 0.0
2018-Feb-19 07:59N 40°39' W 074°04'0 0.0
2018-Feb-19 07:29N 40°39' W 074°04'0 0.0
2018-Feb-19 06:59N 40°39' W 074°04'0 0.0
2018-Feb-19 06:29N 40°39' W 074°04'0 0.0
2018-Feb-19 05:59N 40°39' W 074°04'0 0.0
2018-Feb-19 05:26N 40°39' W 074°04'0 0.0
2018-Feb-19 04:59N 40°39' W 074°04'0 0.0
2018-Feb-19 04:29N 40°39' W 074°04'0 0.0
2018-Feb-19 03:56N 40°39' W 074°04'0 0.0
2018-Feb-19 03:29N 40°39' W 074°04'0 0.0
2018-Feb-19 02:59N 40°39' W 074°04'0 0.0
2018-Feb-19 02:26N 40°39' W 074°04'0 0.0
2018-Feb-19 01:59N 40°39' W 074°04'0 0.0
2018-Feb-19 01:29N 40°39' W 074°04'0 0.0
2018-Feb-19 00:59N 40°39' W 074°04'0 0.0
2018-Feb-19 00:29N 40°39' W 074°04'0 0.0
2018-Feb-18 23:59N 40°39' W 074°04'0 0.0
2018-Feb-18 23:23N 40°39' W 074°04'0 0.0
2018-Feb-18 22:59N 40°39' W 074°04'0 0.0
2018-Feb-18 22:29N 40°39' W 074°04'0 0.0
2018-Feb-18 21:53N 40°39' W 074°04'0 0.0
2018-Feb-18 21:29N 40°39' W 074°04'0 0.0
2018-Feb-18 20:59N 40°39' W 074°04'0 0.0
2018-Feb-18 20:29N 40°39' W 074°04'0 0.0
2018-Feb-18 19:59N 40°39' W 074°04'0 0.0
2018-Feb-18 19:29N 40°39' W 074°04'0 0.0
2018-Feb-18 18:59N 40°39' W 074°04'0 0.0
2018-Feb-18 18:29N 40°39' W 074°04'0 0.0
2018-Feb-18 17:59N 40°39' W 074°04'0 0.0
2018-Feb-18 17:26N 40°39' W 074°04'0 0.0
2018-Feb-18 16:59N 40°39' W 074°04'0 0.0
2018-Feb-18 16:29N 40°39' W 074°04'0 0.0
2018-Feb-18 15:59N 40°39' W 074°04'0 0.0
2018-Feb-18 15:26N 40°39' W 074°04'0 0.0
2018-Feb-18 14:53N 40°39' W 074°04'0 0.0
2018-Feb-18 14:29N 40°39' W 074°04'0 0.0
2018-Feb-18 13:59N 40°39' W 074°04'0 0.0
2018-Feb-18 13:29N 40°39' W 074°04'0 0.0
2018-Feb-18 12:59N 40°39' W 074°04'0 0.0
2018-Feb-18 12:29N 40°39' W 074°04'0 0.0
2018-Feb-18 11:59N 40°39' W 074°04'0 0.0
2018-Feb-18 11:29N 40°39' W 074°04'0 0.0
2018-Feb-18 10:59N 40°39' W 074°04'0 0.0
2018-Feb-18 10:29N 40°39' W 074°04'0 0.0
2018-Feb-18 09:59N 40°39' W 074°04'0 0.0
2018-Feb-18 09:29N 40°39' W 074°04'0 0.0
2018-Feb-18 08:59N 40°39' W 074°04'0 0.0
2018-Feb-18 08:29N 40°39' W 074°04'0 0.0
2018-Feb-18 07:59N 40°39' W 074°04'0 0.0
2018-Feb-18 07:29N 40°39' W 074°04'0 0.0
2018-Feb-18 06:59N 40°39' W 074°04'0 0.0
2018-Feb-18 06:29N 40°39' W 074°04'0 0.0
2018-Feb-18 05:59N 40°39' W 074°04'0 0.0
2018-Feb-18 05:29N 40°39' W 074°04'0 0.0
2018-Feb-18 04:56N 40°39' W 074°04'0 0.0
2018-Feb-18 04:29N 40°39' W 074°04'0 0.0
2018-Feb-18 03:59N 40°39' W 074°04'0 0.0
2018-Feb-18 03:29N 40°39' W 074°04'0 0.0
2018-Feb-18 02:56N 40°39' W 074°04'0 0.0
2018-Feb-18 02:20N 40°39' W 074°04'0 0.0
2018-Feb-18 01:59N 40°39' W 074°04'0 0.0
2018-Feb-18 01:29N 40°39' W 074°04'0 0.0
2018-Feb-18 00:59N 40°39' W 074°04'0 0.0
2018-Feb-18 00:29N 40°39' W 074°04'0 0.0
2018-Feb-17 23:59N 40°39' W 074°04'0 0.0
2018-Feb-17 23:29N 40°39' W 074°04'0 0.0
2018-Feb-17 22:59N 40°39' W 074°04'0 0.0
2018-Feb-17 22:29N 40°39' W 074°04'0 0.0
2018-Feb-17 21:59N 40°39' W 074°04'0 0.0
2018-Feb-17 21:29N 40°39' W 074°04'0 0.0
2018-Feb-17 20:59N 40°39' W 074°04'0 0.0
2018-Feb-17 20:26N 40°39' W 074°04'0 0.0
2018-Feb-17 19:59N 40°39' W 074°04'0 0.0
2018-Feb-17 19:29N 40°39' W 074°04'0 0.0
2018-Feb-17 18:59N 40°39' W 074°04'0 0.0
2018-Feb-17 18:29N 40°39' W 074°04'0 0.0
2018-Feb-17 17:59N 40°39' W 074°04'0 0.0
2018-Feb-17 17:29N 40°39' W 074°04'0 0.0
2018-Feb-17 16:59N 40°39' W 074°04'0 0.0
2018-Feb-17 16:29N 40°39' W 074°04'0 0.0
2018-Feb-17 15:59N 40°39' W 074°04'0 0.0
2018-Feb-17 15:29N 40°39' W 074°04'0 0.0
2018-Feb-17 14:59N 40°39' W 074°04'0 0.0
2018-Feb-17 14:29N 40°39' W 074°04'0 0.0
2018-Feb-17 13:59N 40°39' W 074°04'0 0.0
2018-Feb-17 13:29N 40°39' W 074°04'0 0.0
2018-Feb-17 12:59N 40°39' W 074°04'0 0.0
2018-Feb-17 12:29N 40°39' W 074°04'0 0.0
2018-Feb-17 11:59N 40°39' W 074°04'0 0.0
2018-Feb-17 11:29N 40°39' W 074°04'0 0.0
2018-Feb-17 10:59N 40°39' W 074°04'0 0.0
2018-Feb-17 10:29N 40°39' W 074°04'0 0.0
2018-Feb-17 09:59N 40°39' W 074°04'0 0.0
2018-Feb-17 09:29N 40°39' W 074°04'0 0.0
2018-Feb-17 08:59N 40°39' W 074°04'0 0.0
2018-Feb-17 08:29N 40°39' W 074°04'0 0.0
2018-Feb-17 07:59N 40°39' W 074°04'0 0.0
2018-Feb-17 07:29N 40°39' W 074°04'0 0.0
2018-Feb-17 06:59N 40°39' W 074°04'0 0.0
2018-Feb-17 06:29N 40°39' W 074°04'0 0.0
2018-Feb-17 05:59N 40°39' W 074°04'0 0.1
2018-Feb-17 05:30N 40°39' W 074°04'0 0.0
2018-Feb-17 05:00N 40°39' W 074°04'0 0.2
2018-Feb-17 04:30N 40°39' W 074°04'0 0.0
2018-Feb-17 04:00N 40°39' W 074°04'4 8.7
2018-Feb-17 03:31N 40°42' W 074°01'4 8.5
2018-Feb-17 03:00N 40°39' W 074°04'0 0.1
2018-Feb-17 02:30N 40°39' W 074°04'4 8.7
2018-Feb-17 02:00N 40°42' W 074°01'4 8.6
2018-Feb-17 01:30N 40°39' W 074°04'1 2.4
2018-Feb-17 01:00N 40°40' W 074°03'3 6.2
2018-Feb-17 00:30N 40°42' W 074°01'4 8.6
2018-Feb-17 00:00N 40°39' W 074°04'4 8.5
2018-Feb-16 23:30N 40°42' W 074°01'4 8.6
2018-Feb-16 23:01N 40°39' W 074°04'4 8.5
2018-Feb-16 22:30N 40°42' W 074°01'3 6.2
2018-Feb-16 22:00N 40°39' W 074°03'2 3.1
2018-Feb-16 21:31N 40°41' W 074°02'1 2.0
2018-Feb-16 21:00N 40°40' W 074°03'2 3.4
2018-Feb-16 20:30N 40°39' W 074°04'4 8.6
2018-Feb-16 20:01N 40°42' W 074°01'4 8.5
2018-Feb-16 19:30N 40°39' W 074°04'0 0.1
2018-Feb-16 19:00N 40°39' W 074°04'0 0.0
2018-Feb-16 18:30N 40°39' W 074°04'0 0.0
2018-Feb-16 18:00N 40°39' W 074°04'0 0.0
2018-Feb-16 17:30N 40°39' W 074°04'0 0.0
2018-Feb-16 17:00N 40°39' W 074°04'0 0.0
2018-Feb-16 16:30N 40°39' W 074°04'0 0.0
2018-Feb-16 16:00N 40°39' W 074°04'0 0.0
2018-Feb-16 15:30N 40°39' W 074°04'0 0.0
2018-Feb-16 15:00N 40°39' W 074°04'1 1.0
2018-Feb-16 14:30N 40°39' W 074°04'4 7.1
2018-Feb-16 14:01N 40°42' W 074°01'4 8.1
2018-Feb-16 13:31N 40°39' W 074°04'4 8.6
2018-Feb-16 13:00N 40°42' W 074°01'4 8.7
2018-Feb-16 12:30N 40°39' W 074°04'0 0.1
2018-Feb-16 12:00N 40°39' W 074°04'0 0.0
2018-Feb-16 11:30N 40°39' W 074°04'0 0.0
2018-Feb-16 11:00N 40°39' W 074°04'0 0.0
2018-Feb-16 10:30N 40°39' W 074°04'0 0.0
2018-Feb-16 10:00N 40°39' W 074°04'0 0.0
2018-Feb-16 09:30N 40°39' W 074°04'0 0.0
2018-Feb-16 09:00N 40°39' W 074°04'0 0.0
2018-Feb-16 08:30N 40°39' W 074°04'0 0.0
2018-Feb-16 08:00N 40°39' W 074°04'0 0.0
2018-Feb-16 07:30N 40°39' W 074°04'0 0.0
2018-Feb-16 07:00N 40°39' W 074°04'0 0.0
2018-Feb-16 06:30N 40°39' W 074°04'0 0.0
2018-Feb-16 06:00N 40°39' W 074°04'0 0.0
2018-Feb-16 05:30N 40°39' W 074°04'0 0.0
2018-Feb-16 05:00N 40°39' W 074°04'0 0.1
2018-Feb-16 04:31N 40°39' W 074°04'0 0.0
2018-Feb-16 04:00N 40°39' W 074°04'4 8.7
2018-Feb-16 03:31N 40°42' W 074°01'4 8.6
2018-Feb-16 03:00N 40°39' W 074°04'0 0.0
2018-Feb-16 02:30N 40°39' W 074°04'4 8.7
2018-Feb-16 02:00N 40°42' W 074°01'4 8.6
2018-Feb-16 01:30N 40°39' W 074°04'1 1.3
2018-Feb-16 01:00N 40°39' W 074°04'3 6.6
2018-Feb-16 00:31N 40°42' W 074°01'4 7.8
2018-Feb-16 00:01N 40°39' W 074°04'4 8.6
2018-Feb-15 23:31N 40°42' W 074°01'4 8.6
2018-Feb-15 23:00N 40°39' W 074°04'4 8.6
2018-Feb-15 22:31N 40°42' W 074°01'4 8.2
2018-Feb-15 22:00N 40°39' W 074°04'4 8.1
2018-Feb-15 21:31N 40°42' W 074°01'3 5.8
2018-Feb-15 21:01N 40°40' W 074°03'1 2.6
2018-Feb-15 20:31N 40°39' W 074°04'4 8.6
2018-Feb-15 20:01N 40°42' W 074°01'4 8.5
2018-Feb-15 19:30N 40°39' W 074°04'0 0.1
2018-Feb-15 19:00N 40°39' W 074°04'0 0.0
2018-Feb-15 18:30N 40°39' W 074°04'0 0.0
2018-Feb-15 18:00N 40°39' W 074°04'0 0.0
2018-Feb-15 17:30N 40°39' W 074°04'0 0.0
2018-Feb-15 17:00N 40°39' W 074°04'4 8.6
2018-Feb-15 16:30N 40°42' W 074°01'4 8.5
2018-Feb-15 16:00N 40°39' W 074°04'4 8.6
2018-Feb-15 15:30N 40°42' W 074°01'4 8.6
2018-Feb-15 15:01N 40°39' W 074°04'0 0.1
2018-Feb-15 14:30N 40°39' W 074°04'4 8.7
2018-Feb-15 14:00N 40°42' W 074°01'4 8.6
2018-Feb-15 13:30N 40°39' W 074°04'4 8.6
2018-Feb-15 13:01N 40°42' W 074°01'4 8.7
2018-Feb-15 12:31N 40°39' W 074°04'0 0.1
2018-Feb-15 12:01N 40°39' W 074°04'0 0.0
2018-Feb-15 11:31N 40°39' W 074°04'0 0.0
2018-Feb-15 11:01N 40°39' W 074°04'0 0.0
2018-Feb-15 10:29N 40°39' W 074°04'0 0.0
2018-Feb-15 09:59N 40°39' W 074°04'0 0.0
2018-Feb-15 09:29N 40°39' W 074°04'0 0.0
2018-Feb-15 08:59N 40°39' W 074°04'0 0.0
2018-Feb-15 08:29N 40°39' W 074°04'0 0.0
2018-Feb-15 07:59N 40°39' W 074°04'0 0.0
2018-Feb-15 07:29N 40°39' W 074°04'0 0.0
2018-Feb-15 06:59N 40°39' W 074°04'0 0.0
2018-Feb-15 06:29N 40°39' W 074°04'0 0.0
2018-Feb-15 05:59N 40°39' W 074°04'0 0.1
2018-Feb-15 05:30N 40°39' W 074°04'0 0.0
2018-Feb-15 05:00N 40°39' W 074°04'0 0.3
2018-Feb-15 04:30N 40°39' W 074°04'0 0.0
2018-Feb-15 04:00N 40°39' W 074°04'4 8.6
2018-Feb-15 03:31N 40°42' W 074°01'4 8.5
2018-Feb-15 03:01N 40°39' W 074°04'0 0.1
2018-Feb-15 02:30N 40°39' W 074°04'4 8.6
2018-Feb-15 02:00N 40°42' W 074°01'4 8.4
2018-Feb-15 01:30N 40°39' W 074°04'1 1.3
2018-Feb-15 01:01N 40°39' W 074°04'4 7.3
2018-Feb-15 00:30N 40°42' W 074°01'4 8.6
2018-Feb-15 00:00N 40°39' W 074°04'4 8.6
2018-Feb-14 23:30N 40°42' W 074°01'4 8.6
2018-Feb-14 23:00N 40°39' W 074°04'4 8.6
2018-Feb-14 22:30N 40°42' W 074°01'3 6.5
2018-Feb-14 22:00N 40°39' W 074°03'2 3.4
2018-Feb-14 21:31N 40°41' W 074°02'1 2.0
2018-Feb-14 21:00N 40°40' W 074°03'2 2.5
2018-Feb-14 20:08N 40°42' W 074°01'0 3.1
2018-Feb-14 20:00N 40°42' W 074°01'4 8.6
2018-Feb-14 19:30N 40°39' W 074°04'0 0.0
2018-Feb-14 19:00N 40°39' W 074°04'0 0.0
2018-Feb-14 18:30N 40°39' W 074°04'0 0.0
2018-Feb-14 18:00N 40°39' W 074°04'0 0.0
2018-Feb-14 17:30N 40°39' W 074°04'0 0.0
2018-Feb-14 17:00N 40°39' W 074°04'0 0.0
2018-Feb-14 16:30N 40°39' W 074°04'  
Track history (hours):
 
Tides and Currents Weather Stations Pressure Air Temp Water Temp Dewpoint Dewpoint Depression Visibility Wind Speed Wind Dir Waves Ship Positions

Sen. John J. Marchi

Owner: CITY OF NEW YORK, Brooklyn, NY. More information available from US FCC via Universal Licensing System and Coast Guard Vessel Documentation Center.

Last reported at 2018-Feb-24 16:30 UTC. Time now 2018-Feb-24 16:33 UTC.
Position N 40°39' W 074°04'.

Length 95 m; draft 4 m.

Type: Passenger vessel. MMSI: 366952870.

Date/timePositionNaut miles runAvg speedWind from/ knotsBaromVisibWave heightAir tempDewpointWater temp
2018-Feb-24 16:30N 40°39' W 074°04'0 0.0
2018-Feb-24 16:00N 40°39' W 074°04'0 0.0
2018-Feb-24 15:30N 40°39' W 074°04'0 0.0
2018-Feb-24 15:00N 40°39' W 074°04'0 0.0
2018-Feb-24 14:30N 40°39' W 074°04'0 0.0
2018-Feb-24 14:00N 40°39' W 074°04'0 0.0
2018-Feb-24 13:30N 40°39' W 074°04'0 0.0
2018-Feb-24 13:00N 40°39' W 074°04'0 0.0
2018-Feb-24 12:30N 40°39' W 074°04'0 0.0
2018-Feb-24 12:00N 40°39' W 074°04'0 0.0
2018-Feb-24 11:30N 40°39' W 074°04'0 0.0
2018-Feb-24 11:00N 40°39' W 074°04'0 0.0
2018-Feb-24 10:30N 40°39' W 074°04'0 0.0
2018-Feb-24 10:00N 40°39' W 074°04'0 0.0
2018-Feb-24 09:30N 40°39' W 074°04'0 0.0
2018-Feb-24 09:00N 40°39' W 074°04'0 0.0
2018-Feb-24 08:30N 40°39' W 074°04'0 0.0
2018-Feb-24 08:00N 40°39' W 074°04'0 0.0
2018-Feb-24 07:30N 40°39' W 074°04'0 0.0
2018-Feb-24 07:00N 40°39' W 074°04'0 0.0
2018-Feb-24 06:30N 40°39' W 074°04'0 0.0
2018-Feb-24 06:00N 40°39' W 074°04'0 0.0
2018-Feb-24 05:30N 40°39' W 074°04'0 0.0
2018-Feb-24 05:00N 40°39' W 074°04'0 0.2
2018-Feb-24 04:30N 40°39' W 074°04'0 0.0
2018-Feb-24 04:00N 40°39' W 074°04'4 8.6
2018-Feb-24 03:30N 40°42' W 074°01'4 8.6
2018-Feb-24 03:00N 40°39' W 074°04'0 0.0
2018-Feb-24 02:30N 40°39' W 074°04'0 0.0
2018-Feb-24 02:00N 40°39' W 074°04'4 8.6
2018-Feb-24 01:30N 40°42' W 074°01'4 8.6
2018-Feb-24 01:00N 40°39' W 074°04'3 6.7
2018-Feb-24 00:31N 40°41' W 074°02'2 4.4
2018-Feb-24 00:00N 40°39' W 074°03'2 3.8
2018-Feb-23 23:30N 40°41' W 074°02'2 3.0
2018-Feb-23 23:00N 40°40' W 074°03'2 3.6
2018-Feb-23 22:30N 40°41' W 074°02'2 4.4
2018-Feb-23 22:01N 40°39' W 074°03'1 2.8
2018-Feb-23 21:30N 40°41' W 074°03'1 1.1
2018-Feb-23 21:01N 40°40' W 074°03'2 3.9
2018-Feb-23 20:30N 40°39' W 074°04'4 8.7
2018-Feb-23 20:00N 40°42' W 074°01'4 8.6
2018-Feb-23 19:30N 40°39' W 074°04'4 8.6
2018-Feb-23 19:00N 40°42' W 074°01'4 8.6
2018-Feb-23 18:30N 40°39' W 074°04'0 0.0
2018-Feb-23 18:00N 40°39' W 074°04'0 0.0
2018-Feb-23 17:30N 40°39' W 074°04'4 8.6
2018-Feb-23 17:00N 40°42' W 074°01'4 8.7
2018-Feb-23 16:31N 40°39' W 074°04'4 8.5
2018-Feb-23 16:00N 40°42' W 074°01'4 8.5
2018-Feb-23 15:30N 40°39' W 074°04'0 0.0
2018-Feb-23 15:00N 40°39' W 074°04'0 0.3
2018-Feb-23 14:30N 40°39' W 074°04'4 7.4
2018-Feb-23 14:01N 40°42' W 074°01'3 6.8
2018-Feb-23 13:30N 40°39' W 074°04'3 6.7
2018-Feb-23 13:00N 40°42' W 074°01'3 6.9
2018-Feb-23 12:30N 40°39' W 074°04'4 7.2
2018-Feb-23 12:01N 40°42' W 074°01'4 7.7
2018-Feb-23 11:30N 40°39' W 074°04'0 0.0
2018-Feb-23 11:00N 40°39' W 074°04'0 0.0
2018-Feb-23 10:30N 40°39' W 074°04'0 0.0
2018-Feb-23 09:57N 40°39' W 074°04'0 0.0
2018-Feb-23 09:30N 40°39' W 074°04'0 0.0
2018-Feb-23 09:00N 40°39' W 074°04'0 0.0
2018-Feb-23 08:30N 40°39' W 074°04'0 0.0
2018-Feb-23 08:00N 40°39' W 074°04'0 0.0
2018-Feb-23 07:30N 40°39' W 074°04'0 0.0
2018-Feb-23 07:00N 40°39' W 074°04'0 0.0
2018-Feb-23 06:30N 40°39' W 074°04'0 0.0
2018-Feb-23 06:00N 40°39' W 074°04'0 0.0
2018-Feb-23 05:30N 40°39' W 074°04'0 0.0
2018-Feb-23 05:00N 40°39' W 074°04'0 0.0
2018-Feb-23 04:30N 40°39' W 074°04'0 0.0
2018-Feb-23 04:00N 40°39' W 074°04'4 8.5
2018-Feb-23 03:30N 40°42' W 074°01'4 8.6
2018-Feb-23 03:01N 40°39' W 074°04'0 0.0
2018-Feb-23 02:30N 40°39' W 074°04'0 0.0
2018-Feb-23 01:52N 40°39' W 074°04'412.0
2018-Feb-23 01:30N 40°42' W 074°01'4 8.6
2018-Feb-23 01:01N 40°39' W 074°04'2 4.5
2018-Feb-23 00:30N 40°41' W 074°03'1 1.0
2018-Feb-23 00:00N 40°40' W 074°03'1 1.5
2018-Feb-22 23:31N 40°41' W 074°02'1 1.3
2018-Feb-22 23:01N 40°40' W 074°03'1 1.8
2018-Feb-22 22:31N 40°41' W 074°02'1 2.1
2018-Feb-22 22:01N 40°40' W 074°03'1 1.4
2018-Feb-22 21:31N 40°41' W 074°03'1 1.3
2018-Feb-22 21:00N 40°40' W 074°03'2 3.6
2018-Feb-22 20:30N 40°39' W 074°04'4 8.6
2018-Feb-22 20:00N 40°42' W 074°01'4 8.6
2018-Feb-22 19:30N 40°39' W 074°04'4 8.5
2018-Feb-22 19:00N 40°42' W 074°01'4 8.5
2018-Feb-22 18:30N 40°39' W 074°04'0 0.1
2018-Feb-22 18:00N 40°39' W 074°04'0 0.0
2018-Feb-22 17:30N 40°39' W 074°04'4 8.6
2018-Feb-22 17:00N 40°42' W 074°01'4 8.6
2018-Feb-22 16:31N 40°39' W 074°04'0 0.0
2018-Feb-22 16:01N 40°39' W 074°04'4 8.6
2018-Feb-22 15:30N 40°42' W 074°01'4 8.6
2018-Feb-22 15:01N 40°39' W 074°04'1 1.8
2018-Feb-22 14:31N 40°39' W 074°03'3 5.8
2018-Feb-22 14:00N 40°42' W 074°01'4 7.5
2018-Feb-22 13:30N 40°39' W 074°04'3 6.9
2018-Feb-22 13:00N 40°42' W 074°02'3 6.8
2018-Feb-22 12:31N 40°39' W 074°04'3 6.8
2018-Feb-22 12:00N 40°42' W 074°02'4 7.0
2018-Feb-22 11:30N 40°39' W 074°04'0 0.0
2018-Feb-22 11:00N 40°39' W 074°04'0 0.1
2018-Feb-22 10:30N 40°39' W 074°04'0 0.0
2018-Feb-22 10:00N 40°39' W 074°04'0 0.0
2018-Feb-22 09:30N 40°39' W 074°04'0 0.0
2018-Feb-22 09:00N 40°39' W 074°04'0 0.0
2018-Feb-22 08:30N 40°39' W 074°04'0 0.0
2018-Feb-22 07:58N 40°39' W 074°04'0 0.0
2018-Feb-22 07:28N 40°39' W 074°04'0 0.0
2018-Feb-22 06:58N 40°39' W 074°04'0 0.0
2018-Feb-22 06:28N 40°39' W 074°04'0 0.0
2018-Feb-22 05:58N 40°39' W 074°04'0 0.0
2018-Feb-22 05:28N 40°39' W 074°04'0 0.0
2018-Feb-22 04:58N 40°39' W 074°04'0 0.0
2018-Feb-22 04:30N 40°39' W 074°04'0 0.0
2018-Feb-22 04:00N 40°39' W 074°04'4 8.6
2018-Feb-22 03:30N 40°42' W 074°01'4 8.6
2018-Feb-22 03:00N 40°39' W 074°04'0 0.0
2018-Feb-22 02:30N 40°39' W 074°04'4 8.6
2018-Feb-22 02:00N 40°42' W 074°01'4 8.6
2018-Feb-22 01:30N 40°39' W 074°04'4 8.6
2018-Feb-22 01:00N 40°42' W 074°01'4 8.6
2018-Feb-22 00:30N 40°39' W 074°04'4 8.6
2018-Feb-22 00:00N 40°42' W 074°01'4 8.2
2018-Feb-21 23:31N 40°39' W 074°04'2 3.8
2018-Feb-21 23:00N 40°40' W 074°03'1 1.3
2018-Feb-21 22:30N 40°41' W 074°02'2 3.1
2018-Feb-21 22:01N 40°40' W 074°03'3 5.6
2018-Feb-21 21:30N 40°42' W 074°01'4 8.1
2018-Feb-21 21:00N 40°39' W 074°04'4 8.6
2018-Feb-21 20:30N 40°42' W 074°01'4 8.6
2018-Feb-21 20:01N 40°39' W 074°04'0 0.3
2018-Feb-21 19:30N 40°39' W 074°04'4 8.3
2018-Feb-21 19:00N 40°42' W 074°01'4 8.6
2018-Feb-21 18:30N 40°39' W 074°04'4 8.6
2018-Feb-21 18:01N 40°42' W 074°01'4 8.5
2018-Feb-21 17:30N 40°39' W 074°04'0 0.1
2018-Feb-21 17:00N 40°39' W 074°04'4 8.4
2018-Feb-21 16:30N 40°42' W 074°01'4 8.9
2018-Feb-21 16:00N 40°39' W 074°04'4 8.6
2018-Feb-21 15:31N 40°42' W 074°01'4 8.5
2018-Feb-21 15:00N 40°39' W 074°04'0 0.1
2018-Feb-21 14:30N 40°39' W 074°04'4 8.5
2018-Feb-21 14:00N 40°42' W 074°01'4 8.7
2018-Feb-21 13:30N 40°39' W 074°04'4 8.6
2018-Feb-21 13:00N 40°42' W 074°01'4 8.6
2018-Feb-21 12:30N 40°39' W 074°04'1 1.7
2018-Feb-21 12:00N 40°38' W 074°04'1 1.6
2018-Feb-21 11:30N 40°39' W 074°04'0 0.0
2018-Feb-21 11:00N 40°39' W 074°04'0 0.1
2018-Feb-21 10:30N 40°39' W 074°04'0 0.1
2018-Feb-21 10:00N 40°39' W 074°04'0 0.0
2018-Feb-21 09:27N 40°39' W 074°04'0 0.0
2018-Feb-21 09:00N 40°39' W 074°04'0 0.0
2018-Feb-21 08:30N 40°39' W 074°04'0 0.0
2018-Feb-21 08:00N 40°39' W 074°04'0 0.0
2018-Feb-21 07:30N 40°39' W 074°04'0 0.0
2018-Feb-21 07:00N 40°39' W 074°04'0 0.0
2018-Feb-21 06:30N 40°39' W 074°04'0 0.0
2018-Feb-21 05:57N 40°39' W 074°04'0 0.0
2018-Feb-21 05:30N 40°39' W 074°04'0 0.0
2018-Feb-21 05:00N 40°39' W 074°04'0 0.3
2018-Feb-21 04:30N 40°39' W 074°04'0 0.0
2018-Feb-21 04:00N 40°39' W 074°04'4 8.5
2018-Feb-21 03:30N 40°42' W 074°01'4 8.6
2018-Feb-21 03:00N 40°39' W 074°04'0 0.1
2018-Feb-21 02:30N 40°39' W 074°04'4 8.6
2018-Feb-21 02:00N 40°42' W 074°01'4 8.6
2018-Feb-21 01:31N 40°39' W 074°04'0 0.0
2018-Feb-21 01:00N 40°39' W 074°04'4 8.5
2018-Feb-21 00:30N 40°42' W 074°01'4 8.5
2018-Feb-21 00:00N 40°39' W 074°04'4 8.5
2018-Feb-20 23:30N 40°42' W 074°01'4 8.4
2018-Feb-20 23:00N 40°39' W 074°04'4 8.6
2018-Feb-20 22:30N 40°42' W 074°01'3 6.0
2018-Feb-20 22:00N 40°40' W 074°03'2 3.4
2018-Feb-20 21:31N 40°41' W 074°02'1 2.8
2018-Feb-20 21:00N 40°40' W 074°03'2 3.2
2018-Feb-20 20:30N 40°39' W 074°04'4 8.8
2018-Feb-20 20:01N 40°42' W 074°01'4 8.6
2018-Feb-20 19:30N 40°39' W 074°04'0 0.0
2018-Feb-20 19:00N 40°39' W 074°04'4 8.5
2018-Feb-20 18:30N 40°42' W 074°01'4 8.5
2018-Feb-20 18:00N 40°39' W 074°04'4 8.7
2018-Feb-20 17:30N 40°42' W 074°01'4 8.6
2018-Feb-20 17:00N 40°39' W 074°04'0 0.0
2018-Feb-20 16:30N 40°39' W 074°04'4 8.6
2018-Feb-20 16:00N 40°42' W 074°01'4 8.6
2018-Feb-20 15:30N 40°39' W 074°04'1 2.9
2018-Feb-20 15:00N 40°40' W 074°03'3 5.4
2018-Feb-20 14:31N 40°42' W 074°01'4 8.3
2018-Feb-20 14:00N 40°39' W 074°04'3 6.3
2018-Feb-20 13:30N 40°41' W 074°02'0 0.4
2018-Feb-20 13:00N 40°41' W 074°02'3 6.0
2018-Feb-20 12:30N 40°39' W 074°04'0 0.2
2018-Feb-20 12:01N 40°39' W 074°04'0 0.0
2018-Feb-20 11:31N 40°39' W 074°04'0 0.1
2018-Feb-20 11:00N 40°39' W 074°04'0 0.0
2018-Feb-20 10:29N 40°39' W 074°04'0 0.0
2018-Feb-20 09:59N 40°39' W 074°04'0 0.0
2018-Feb-20 09:29N 40°39' W 074°04'0 0.0
2018-Feb-20 08:59N 40°39' W 074°04'0 0.0
2018-Feb-20 08:29N 40°39' W 074°04'0 0.0
2018-Feb-20 07:59N 40°39' W 074°04'0 0.0
2018-Feb-20 07:29N 40°39' W 074°04'0 0.0
2018-Feb-20 06:59N 40°39' W 074°04'0 0.0
2018-Feb-20 06:29N 40°39' W 074°04'0 0.0
2018-Feb-20 05:59N 40°39' W 074°04'0 0.0
2018-Feb-20 05:29N 40°39' W 074°04'0 0.0
2018-Feb-20 04:59N 40°39' W 074°04'0 0.0
2018-Feb-20 04:29N 40°39' W 074°04'0 0.0
2018-Feb-20 03:59N 40°39' W 074°04'0 0.0
2018-Feb-20 03:29N 40°39' W 074°04'0 0.0
2018-Feb-20 02:59N 40°39' W 074°04'0 0.0
2018-Feb-20 02:29N 40°39' W 074°04'0 0.0
2018-Feb-20 01:59N 40°39' W 074°04'0 0.0
2018-Feb-20 01:29N 40°39' W 074°04'0 0.0
2018-Feb-20 00:59N 40°39' W 074°04'0 0.0
2018-Feb-20 00:29N 40°39' W 074°04'0 0.0
2018-Feb-19 23:59N 40°39' W 074°04'0 0.0
2018-Feb-19 23:29N 40°39' W 074°04'0 0.0
2018-Feb-19 22:59N 40°39' W 074°04'0 0.0
2018-Feb-19 22:29N 40°39' W 074°04'0 0.0
2018-Feb-19 21:59N 40°39' W 074°04'0 0.0
2018-Feb-19 21:29N 40°39' W 074°04'0 0.0
2018-Feb-19 20:59N 40°39' W 074°04'0 0.0
2018-Feb-19 20:29N 40°39' W 074°04'0 0.0
2018-Feb-19 19:59N 40°39' W 074°04'0 0.0
2018-Feb-19 19:29N 40°39' W 074°04'0 0.0
2018-Feb-19 18:59N 40°39' W 074°04'0 0.0
2018-Feb-19 18:29N 40°39' W 074°04'0 0.0
2018-Feb-19 17:59N 40°39' W 074°04'0 0.0
2018-Feb-19 17:29N 40°39' W 074°04'0 0.0
2018-Feb-19 16:59N 40°39' W 074°04'0 0.0
2018-Feb-19 16:26N 40°39' W 074°04'0 0.0
2018-Feb-19 15:59N 40°39' W 074°04'0 0.0
2018-Feb-19 15:29N 40°39' W 074°04'0 0.0
2018-Feb-19 14:59N 40°39' W 074°04'0 0.0
2018-Feb-19 14:29N 40°39' W 074°04'0 0.0
2018-Feb-19 13:59N 40°39' W 074°04'0 0.0
2018-Feb-19 13:29N 40°39' W 074°04'0 0.0
2018-Feb-19 12:59N 40°39' W 074°04'0 0.0
2018-Feb-19 12:29N 40°39' W 074°04'0 0.0
2018-Feb-19 11:59N 40°39' W 074°04'0 0.0
2018-Feb-19 11:29N 40°39' W 074°04'0 0.0
2018-Feb-19 10:59N 40°39' W 074°04'0 0.0
2018-Feb-19 10:26N 40°39' W 074°04'0 0.0
2018-Feb-19 09:59N 40°39' W 074°04'0 0.0
2018-Feb-19 09:29N 40°39' W 074°04'0 0.0
2018-Feb-19 08:59N 40°39' W 074°04'0 0.0
2018-Feb-19 08:23N 40°39' W 074°04'0 0.0
2018-Feb-19 07:59N 40°39' W 074°04'0 0.0
2018-Feb-19 07:29N 40°39' W 074°04'0 0.0
2018-Feb-19 06:59N 40°39' W 074°04'0 0.0
2018-Feb-19 06:29N 40°39' W 074°04'0 0.0
2018-Feb-19 05:59N 40°39' W 074°04'0 0.0
2018-Feb-19 05:26N 40°39' W 074°04'0 0.0
2018-Feb-19 04:59N 40°39' W 074°04'0 0.0
2018-Feb-19 04:29N 40°39' W 074°04'0 0.0
2018-Feb-19 03:56N 40°39' W 074°04'0 0.0
2018-Feb-19 03:29N 40°39' W 074°04'0 0.0
2018-Feb-19 02:59N 40°39' W 074°04'0 0.0
2018-Feb-19 02:26N 40°39' W 074°04'0 0.0
2018-Feb-19 01:59N 40°39' W 074°04'0 0.0
2018-Feb-19 01:29N 40°39' W 074°04'0 0.0
2018-Feb-19 00:59N 40°39' W 074°04'0 0.0
2018-Feb-19 00:29N 40°39' W 074°04'0 0.0
2018-Feb-18 23:59N 40°39' W 074°04'0 0.0
2018-Feb-18 23:23N 40°39' W 074°04'0 0.0
2018-Feb-18 22:59N 40°39' W 074°04'0 0.0
2018-Feb-18 22:29N 40°39' W 074°04'0 0.0
2018-Feb-18 21:53N 40°39' W 074°04'0 0.0
2018-Feb-18 21:29N 40°39' W 074°04'0 0.0
2018-Feb-18 20:59N 40°39' W 074°04'0 0.0
2018-Feb-18 20:29N 40°39' W 074°04'0 0.0
2018-Feb-18 19:59N 40°39' W 074°04'0 0.0
2018-Feb-18 19:29N 40°39' W 074°04'0 0.0
2018-Feb-18 18:59N 40°39' W 074°04'0 0.0
2018-Feb-18 18:29N 40°39' W 074°04'0 0.0
2018-Feb-18 17:59N 40°39' W 074°04'0 0.0
2018-Feb-18 17:26N 40°39' W 074°04'0 0.0
2018-Feb-18 16:59N 40°39' W 074°04'0 0.0
2018-Feb-18 16:29N 40°39' W 074°04'0 0.0
2018-Feb-18 15:59N 40°39' W 074°04'0 0.0
2018-Feb-18 15:26N 40°39' W 074°04'0 0.0
2018-Feb-18 14:53N 40°39' W 074°04'0 0.0
2018-Feb-18 14:29N 40°39' W 074°04'0 0.0
2018-Feb-18 13:59N 40°39' W 074°04'0 0.0
2018-Feb-18 13:29N 40°39' W 074°04'0 0.0
2018-Feb-18 12:59N 40°39' W 074°04'0 0.0
2018-Feb-18 12:29N 40°39' W 074°04'0 0.0
2018-Feb-18 11:59N 40°39' W 074°04'0 0.0
2018-Feb-18 11:29N 40°39' W 074°04'0 0.0
2018-Feb-18 10:59N 40°39' W 074°04'0 0.0
2018-Feb-18 10:29N 40°39' W 074°04'0 0.0
2018-Feb-18 09:59N 40°39' W 074°04'0 0.0
2018-Feb-18 09:29N 40°39' W 074°04'0 0.0
2018-Feb-18 08:59N 40°39' W 074°04'0 0.0
2018-Feb-18 08:29N 40°39' W 074°04'0 0.0
2018-Feb-18 07:59N 40°39' W 074°04'0 0.0
2018-Feb-18 07:29N 40°39' W 074°04'0 0.0
2018-Feb-18 06:59N 40°39' W 074°04'0 0.0
2018-Feb-18 06:29N 40°39' W 074°04'0 0.0
2018-Feb-18 05:59N 40°39' W 074°04'0 0.0
2018-Feb-18 05:29N 40°39' W 074°04'0 0.0
2018-Feb-18 04:56N 40°39' W 074°04'0 0.0
2018-Feb-18 04:29N 40°39' W 074°04'0 0.0
2018-Feb-18 03:59N 40°39' W 074°04'0 0.0
2018-Feb-18 03:29N 40°39' W 074°04'0 0.0
2018-Feb-18 02:56N 40°39' W 074°04'0 0.0
2018-Feb-18 02:20N 40°39' W 074°04'0 0.0
2018-Feb-18 01:59N 40°39' W 074°04'0 0.0
2018-Feb-18 01:29N 40°39' W 074°04'0 0.0
2018-Feb-18 00:59N 40°39' W 074°04'0 0.0
2018-Feb-18 00:29N 40°39' W 074°04'0 0.0
2018-Feb-17 23:59N 40°39' W 074°04'0 0.0
2018-Feb-17 23:29N 40°39' W 074°04'0 0.0
2018-Feb-17 22:59N 40°39' W 074°04'0 0.0
2018-Feb-17 22:29N 40°39' W 074°04'0 0.0
2018-Feb-17 21:59N 40°39' W 074°04'0 0.0
2018-Feb-17 21:29N 40°39' W 074°04'0 0.0
2018-Feb-17 20:59N 40°39' W 074°04'0 0.0
2018-Feb-17 20:26N 40°39' W 074°04'0 0.0
2018-Feb-17 19:59N 40°39' W 074°04'0 0.0
2018-Feb-17 19:29N 40°39' W 074°04'0 0.0
2018-Feb-17 18:59N 40°39' W 074°04'0 0.0
2018-Feb-17 18:29N 40°39' W 074°04'0 0.0
2018-Feb-17 17:59N 40°39' W 074°04'0 0.0
2018-Feb-17 17:29N 40°39' W 074°04'0 0.0
2018-Feb-17 16:59N 40°39' W 074°04'0 0.0
2018-Feb-17 16:29N 40°39' W 074°04'0 0.0
2018-Feb-17 15:59N 40°39' W 074°04'0 0.0
2018-Feb-17 15:29N 40°39' W 074°04'0 0.0
2018-Feb-17 14:59N 40°39' W 074°04'0 0.0
2018-Feb-17 14:29N 40°39' W 074°04'0 0.0
2018-Feb-17 13:59N 40°39' W 074°04'0 0.0
2018-Feb-17 13:29N 40°39' W 074°04'0 0.0
2018-Feb-17 12:59N 40°39' W 074°04'0 0.0
2018-Feb-17 12:29N 40°39' W 074°04'0 0.0
2018-Feb-17 11:59N 40°39' W 074°04'0 0.0
2018-Feb-17 11:29N 40°39' W 074°04'0 0.0
2018-Feb-17 10:59N 40°39' W 074°04'0 0.0
2018-Feb-17 10:29N 40°39' W 074°04'0 0.0
2018-Feb-17 09:59N 40°39' W 074°04'0 0.0
2018-Feb-17 09:29N 40°39' W 074°04'0 0.0
2018-Feb-17 08:59N 40°39' W 074°04'0 0.0
2018-Feb-17 08:29N 40°39' W 074°04'0 0.0
2018-Feb-17 07:59N 40°39' W 074°04'0 0.0
2018-Feb-17 07:29N 40°39' W 074°04'0 0.0
2018-Feb-17 06:59N 40°39' W 074°04'0 0.0
2018-Feb-17 06:29N 40°39' W 074°04'0 0.0
2018-Feb-17 05:59N 40°39' W 074°04'0 0.1
2018-Feb-17 05:30N 40°39' W 074°04'0 0.0
2018-Feb-17 05:00N 40°39' W 074°04'0 0.2
2018-Feb-17 04:30N 40°39' W 074°04'0 0.0
2018-Feb-17 04:00N 40°39' W 074°04'4 8.7
2018-Feb-17 03:31N 40°42' W 074°01'4 8.5
2018-Feb-17 03:00N 40°39' W 074°04'0 0.1
2018-Feb-17 02:30N 40°39' W 074°04'4 8.7
2018-Feb-17 02:00N 40°42' W 074°01'4 8.6
2018-Feb-17 01:30N 40°39' W 074°04'1 2.4
2018-Feb-17 01:00N 40°40' W 074°03'3 6.2
2018-Feb-17 00:30N 40°42' W 074°01'4 8.6
2018-Feb-17 00:00N 40°39' W 074°04'4 8.5
2018-Feb-16 23:30N 40°42' W 074°01'4 8.6
2018-Feb-16 23:01N 40°39' W 074°04'4 8.5
2018-Feb-16 22:30N 40°42' W 074°01'3 6.2
2018-Feb-16 22:00N 40°39' W 074°03'2 3.1
2018-Feb-16 21:31N 40°41' W 074°02'1 2.0
2018-Feb-16 21:00N 40°40' W 074°03'2 3.4
2018-Feb-16 20:30N 40°39' W 074°04'4 8.6
2018-Feb-16 20:01N 40°42' W 074°01'4 8.5
2018-Feb-16 19:30N 40°39' W 074°04'0 0.1
2018-Feb-16 19:00N 40°39' W 074°04'0 0.0
2018-Feb-16 18:30N 40°39' W 074°04'0 0.0
2018-Feb-16 18:00N 40°39' W 074°04'0 0.0
2018-Feb-16 17:30N 40°39' W 074°04'0 0.0
2018-Feb-16 17:00N 40°39' W 074°04'0 0.0
2018-Feb-16 16:30N 40°39' W 074°04'0 0.0
2018-Feb-16 16:00N 40°39' W 074°04'0 0.0
2018-Feb-16 15:30N 40°39' W 074°04'0 0.0
2018-Feb-16 15:00N 40°39' W 074°04'1 1.0
2018-Feb-16 14:30N 40°39' W 074°04'4 7.1
2018-Feb-16 14:01N 40°42' W 074°01'4 8.1
2018-Feb-16 13:31N 40°39' W 074°04'4 8.6
2018-Feb-16 13:00N 40°42' W 074°01'4 8.7
2018-Feb-16 12:30N 40°39' W 074°04'0 0.1
2018-Feb-16 12:00N 40°39' W 074°04'0 0.0
2018-Feb-16 11:30N 40°39' W 074°04'0 0.0
2018-Feb-16 11:00N 40°39' W 074°04'0 0.0
2018-Feb-16 10:30N 40°39' W 074°04'0 0.0
2018-Feb-16 10:00N 40°39' W 074°04'0 0.0
2018-Feb-16 09:30N 40°39' W 074°04'0 0.0
2018-Feb-16 09:00N 40°39' W 074°04'0 0.0
2018-Feb-16 08:30N 40°39' W 074°04'0 0.0
2018-Feb-16 08:00N 40°39' W 074°04'0 0.0
2018-Feb-16 07:30N 40°39' W 074°04'0 0.0
2018-Feb-16 07:00N 40°39' W 074°04'0 0.0
2018-Feb-16 06:30N 40°39' W 074°04'0 0.0
2018-Feb-16 06:00N 40°39' W 074°04'0 0.0
2018-Feb-16 05:30N 40°39' W 074°04'0 0.0
2018-Feb-16 05:00N 40°39' W 074°04'0 0.1
2018-Feb-16 04:31N 40°39' W 074°04'0 0.0
2018-Feb-16 04:00N 40°39' W 074°04'4 8.7
2018-Feb-16 03:31N 40°42' W 074°01'4 8.6
2018-Feb-16 03:00N 40°39' W 074°04'0 0.0
2018-Feb-16 02:30N 40°39' W 074°04'4 8.7
2018-Feb-16 02:00N 40°42' W 074°01'4 8.6
2018-Feb-16 01:30N 40°39' W 074°04'1 1.3
2018-Feb-16 01:00N 40°39' W 074°04'3 6.6
2018-Feb-16 00:31N 40°42' W 074°01'4 7.8
2018-Feb-16 00:01N 40°39' W 074°04'4 8.6
2018-Feb-15 23:31N 40°42' W 074°01'4 8.6
2018-Feb-15 23:00N 40°39' W 074°04'4 8.6
2018-Feb-15 22:31N 40°42' W 074°01'4 8.2
2018-Feb-15 22:00N 40°39' W 074°04'4 8.1
2018-Feb-15 21:31N 40°42' W 074°01'3 5.8
2018-Feb-15 21:01N 40°40' W 074°03'1 2.6
2018-Feb-15 20:31N 40°39' W 074°04'4 8.6
2018-Feb-15 20:01N 40°42' W 074°01'4 8.5
2018-Feb-15 19:30N 40°39' W 074°04'0 0.1
2018-Feb-15 19:00N 40°39' W 074°04'0 0.0
2018-Feb-15 18:30N 40°39' W 074°04'0 0.0
2018-Feb-15 18:00N 40°39' W 074°04'0 0.0
2018-Feb-15 17:30N 40°39' W 074°04'0 0.0
2018-Feb-15 17:00N 40°39' W 074°04'4 8.6
2018-Feb-15 16:30N 40°42' W 074°01'4 8.5
2018-Feb-15 16:00N 40°39' W 074°04'4 8.6
2018-Feb-15 15:30N 40°42' W 074°01'4 8.6
2018-Feb-15 15:01N 40°39' W 074°04'0 0.1
2018-Feb-15 14:30N 40°39' W 074°04'4 8.7
2018-Feb-15 14:00N 40°42' W 074°01'4 8.6
2018-Feb-15 13:30N 40°39' W 074°04'4 8.6
2018-Feb-15 13:01N 40°42' W 074°01'4 8.7
2018-Feb-15 12:31N 40°39' W 074°04'0 0.1
2018-Feb-15 12:01N 40°39' W 074°04'0 0.0
2018-Feb-15 11:31N 40°39' W 074°04'0 0.0
2018-Feb-15 11:01N 40°39' W 074°04'0 0.0
2018-Feb-15 10:29N 40°39' W 074°04'0 0.0
2018-Feb-15 09:59N 40°39' W 074°04'0 0.0
2018-Feb-15 09:29N 40°39' W 074°04'0 0.0
2018-Feb-15 08:59N 40°39' W 074°04'0 0.0
2018-Feb-15 08:29N 40°39' W 074°04'0 0.0
2018-Feb-15 07:59N 40°39' W 074°04'0 0.0
2018-Feb-15 07:29N 40°39' W 074°04'0 0.0
2018-Feb-15 06:59N 40°39' W 074°04'0 0.0
2018-Feb-15 06:29N 40°39' W 074°04'0 0.0
2018-Feb-15 05:59N 40°39' W 074°04'0 0.1
2018-Feb-15 05:30N 40°39' W 074°04'0 0.0
2018-Feb-15 05:00N 40°39' W 074°04'0 0.3
2018-Feb-15 04:30N 40°39' W 074°04'0 0.0
2018-Feb-15 04:00N 40°39' W 074°04'4 8.6
2018-Feb-15 03:31N 40°42' W 074°01'4 8.5
2018-Feb-15 03:01N 40°39' W 074°04'0 0.1
2018-Feb-15 02:30N 40°39' W 074°04'4 8.6
2018-Feb-15 02:00N 40°42' W 074°01'4 8.4
2018-Feb-15 01:30N 40°39' W 074°04'1 1.3
2018-Feb-15 01:01N 40°39' W 074°04'4 7.3
2018-Feb-15 00:30N 40°42' W 074°01'4 8.6
2018-Feb-15 00:00N 40°39' W 074°04'4 8.6
2018-Feb-14 23:30N 40°42' W 074°01'4 8.6
2018-Feb-14 23:00N 40°39' W 074°04'4 8.6
2018-Feb-14 22:30N 40°42' W 074°01'3 6.5
2018-Feb-14 22:00N 40°39' W 074°03'2 3.4
2018-Feb-14 21:31N 40°41' W 074°02'1 2.0
2018-Feb-14 21:00N 40°40' W 074°03'2 2.5
2018-Feb-14 20:08N 40°42' W 074°01'0 3.1
2018-Feb-14 20:00N 40°42' W 074°01'4 8.6
2018-Feb-14 19:30N 40°39' W 074°04'0 0.0
2018-Feb-14 19:00N 40°39' W 074°04'0 0.0
2018-Feb-14 18:30N 40°39' W 074°04'0 0.0
2018-Feb-14 18:00N 40°39' W 074°04'0 0.0
2018-Feb-14 17:30N 40°39' W 074°04'0 0.0
2018-Feb-14 17:00N 40°39' W 074°04'0 0.0
2018-Feb-14 16:30N 40°39' W 074°04'  

Dump ship's entire track history